Time;durP1;ratioP1;P1;durP2;ratioP2;P2;SDS_P1;SDS_P2;PMS_P1;PMS_P2;Temp;Humidity;BMP_temperature;BMP_pressure;BME280_temperature;BME280_humidity;BME280_pressure;Samples;Min_cycle;Max_cycle;Signal;HPM_P1;HPM_P2
2021/04/22 00:00:12;;;;;;;;;;;7.10;38.60;;;;;;5057974;28;19959;-82
2021/04/22 00:02:37;;;;;;;;;;;7.00;38.60;;;;;;5061309;28;19923;-83
2021/04/22 00:05:07;;;;;;;;;;;7.00;38.60;;;;;;5060665;28;19909;-82
2021/04/22 00:07:35;;;;;;;;;;;7.00;38.70;;;;;;5060826;28;19913;-82
2021/04/22 00:10:00;;;;;;;;;;;7.00;38.60;;;;;;5059138;28;20370;-83
2021/04/22 00:12:26;;;;;;;;;;;6.90;38.60;;;;;;5042474;28;19956;-82
2021/04/22 00:14:51;;;;;;;;;;;6.90;38.60;;;;;;5035514;28;20300;-83
2021/04/22 00:17:17;;;;;;;;;;;6.80;38.60;;;;;;5059777;28;19913;-82
2021/04/22 00:19:42;;;;;;;;;;;6.80;38.60;;;;;;5060643;28;19909;-82
2021/04/22 00:22:10;;;;;;;;;;;6.80;38.70;;;;;;5061850;28;20422;-83
2021/04/22 00:24:36;;;;;;;;;;;6.70;39.20;;;;;;5059900;28;19916;-82
2021/04/22 00:27:02;;;;;;;;;;;6.60;38.60;;;;;;5059402;28;19921;-82
2021/04/22 00:29:27;;;;;;;;;;;6.60;38.60;;;;;;5060588;28;19912;-82
2021/04/22 00:31:52;;;;;;;;;;;6.60;38.70;;;;;;5042776;28;19939;-81
2021/04/22 00:34:18;;;;;;;;;;;6.50;38.60;;;;;;5059558;28;20042;-81
2021/04/22 00:36:43;;;;;;;;;;;6.50;38.70;;;;;;5059162;28;19920;-83
2021/04/22 00:39:09;;;;;;;;;;;6.40;38.70;;;;;;5059926;28;20007;-82
2021/04/22 00:41:34;;;;;;;;;;;6.40;38.70;;;;;;5059006;28;19931;-82
2021/04/22 00:44:05;;;;;;;;;;;6.40;38.80;;;;;;5055927;28;19966;-82
2021/04/22 00:46:30;;;;;;;;;;;6.40;38.80;;;;;;5058864;28;19921;-82
2021/04/22 00:48:56;;;;;;;;;;;6.30;38.80;;;;;;5059755;28;19909;-82
2021/04/22 00:51:24;;;;;;;;;;;6.30;38.80;;;;;;5060370;28;19909;-82
2021/04/22 00:53:50;;;;;;;;;;;6.20;38.80;;;;;;5060447;28;19964;-83
2021/04/22 00:56:16;;;;;;;;;;;6.20;38.80;;;;;;5058689;28;20426;-82
2021/04/22 00:58:41;;;;;;;;;;;6.10;38.70;;;;;;5059012;28;19908;-82
2021/04/22 01:01:07;;;;;;;;;;;6.10;38.80;;;;;;5059042;28;19972;-82
2021/04/22 01:03:32;;;;;;;;;;;6.10;38.80;;;;;;5060687;28;19908;-82
2021/04/22 01:06:02;;;;;;;;;;;6.10;38.90;;;;;;5058195;28;19952;-82
2021/04/22 01:08:27;;;;;;;;;;;6.00;38.80;;;;;;5058783;28;19908;-82
2021/04/22 01:10:53;;;;;;;;;;;5.90;38.80;;;;;;5041864;28;20011;-83
2021/04/22 01:13:19;;;;;;;;;;;6.00;38.90;;;;;;5060219;28;19916;-83
2021/04/22 01:15:44;;;;;;;;;;;5.90;38.80;;;;;;5059765;28;19909;-82
2021/04/22 01:18:10;;;;;;;;;;;5.90;38.90;;;;;;5058735;28;19909;-82
2021/04/22 01:20:37;;;;;;;;;;;5.90;38.90;;;;;;5059773;28;19909;-82
2021/04/22 01:23:03;;;;;;;;;;;5.90;38.90;;;;;;5058538;28;19912;-82
2021/04/22 01:25:30;;;;;;;;;;;5.90;38.90;;;;;;5067911;28;19912;-82
2021/04/22 01:27:57;;;;;;;;;;;5.80;38.90;;;;;;5040274;28;19977;-82
2021/04/22 01:30:24;;;;;;;;;;;5.80;38.90;;;;;;5040998;28;19909;-83
2021/04/22 01:32:50;;;;;;;;;;;5.80;38.90;;;;;;5039468;28;19908;-81
2021/04/22 01:35:17;;;;;;;;;;;5.70;38.90;;;;;;5059140;28;19915;-82
2021/04/22 01:37:43;;;;;;;;;;;5.70;38.90;;;;;;5039868;28;19920;-82
2021/04/22 01:40:09;;;;;;;;;;;5.70;38.90;;;;;;5058857;28;19909;-81
2021/04/22 01:42:35;;;;;;;;;;;5.70;39.00;;;;;;5052774;28;19913;-82
2021/04/22 01:45:00;;;;;;;;;;;5.60;38.90;;;;;;5066558;28;19927;-82
2021/04/22 01:47:26;;;;;;;;;;;5.60;38.90;;;;;;5051595;28;20284;-82
2021/04/22 01:49:51;;;;;;;;;;;5.60;38.90;;;;;;5058170;28;20419;-82
2021/04/22 01:52:17;;;;;;;;;;;5.50;38.90;;;;;;5057638;28;19916;-82
2021/04/22 01:54:45;;;;;;;;;;;5.50;38.90;;;;;;5057929;28;19909;-82
2021/04/22 01:57:11;;;;;;;;;;;5.50;39.00;;;;;;5058538;28;19908;-82
2021/04/22 01:59:36;;;;;;;;;;;5.50;39.00;;;;;;5057452;28;19908;-82
2021/04/22 02:02:03;;;;;;;;;;;5.50;39.10;;;;;;5058492;28;19916;-82
2021/04/22 02:04:28;;;;;;;;;;;5.40;39.00;;;;;;5057525;28;20383;-81
2021/04/22 02:06:53;;;;;;;;;;;5.30;39.00;;;;;;5058431;28;19912;-82
2021/04/22 02:09:19;;;;;;;;;;;5.30;39.00;;;;;;5057871;28;19908;-82
2021/04/22 02:11:44;;;;;;;;;;;5.30;39.10;;;;;;5057371;28;19909;-81
2021/04/22 02:14:10;;;;;;;;;;;5.20;39.10;;;;;;5062640;28;19928;-81
2021/04/22 02:16:36;;;;;;;;;;;5.20;39.10;;;;;;5058895;28;19954;-81
2021/04/22 02:19:04;;;;;;;;;;;5.20;39.10;;;;;;5062750;28;19915;-82
2021/04/22 02:21:30;;;;;;;;;;;5.20;39.20;;;;;;5062635;28;20012;-82
2021/04/22 02:23:56;;;;;;;;;;;5.20;39.30;;;;;;5055759;28;19948;-82
2021/04/22 02:26:21;;;;;;;;;;;5.10;39.20;;;;;;5057932;28;20023;-82
2021/04/22 02:28:47;;;;;;;;;;;5.10;39.30;;;;;;5056232;28;19916;-82
2021/04/22 02:31:12;;;;;;;;;;;5.00;39.20;;;;;;5039356;28;19913;-82
2021/04/22 02:33:37;;;;;;;;;;;5.00;39.20;;;;;;5057596;28;19916;-82
2021/04/22 02:36:03;;;;;;;;;;;5.00;39.30;;;;;;5057496;28;19919;-82
2021/04/22 02:38:29;;;;;;;;;;;5.00;39.30;;;;;;5038869;28;19924;-82
2021/04/22 02:40:54;;;;;;;;;;;5.00;39.30;;;;;;5056661;28;19962;-81
2021/04/22 02:43:20;;;;;;;;;;;4.90;39.30;;;;;;5055978;28;19919;-81
2021/04/22 02:45:50;;;;;;;;;;;4.90;39.30;;;;;;5077569;28;19904;-82
2021/04/22 02:48:16;;;;;;;;;;;4.90;39.30;;;;;;5068363;28;19954;-82
2021/04/22 02:50:46;;;;;;;;;;;4.90;39.40;;;;;;5056845;28;19909;-82
2021/04/22 02:53:12;;;;;;;;;;;4.80;39.30;;;;;;5058151;28;19908;-82
2021/04/22 02:55:38;;;;;;;;;;;4.90;39.40;;;;;;5057539;28;19957;-82
2021/04/22 02:58:04;;;;;;;;;;;4.80;39.40;;;;;;5056405;28;19908;-81
2021/04/22 03:00:30;;;;;;;;;;;4.80;39.40;;;;;;5056944;28;19909;-82
2021/04/22 03:02:55;;;;;;;;;;;4.80;39.40;;;;;;5058567;28;19940;-83
2021/04/22 03:05:21;;;;;;;;;;;4.80;39.50;;;;;;5057869;28;19996;-82
2021/04/22 03:07:46;;;;;;;;;;;4.70;39.50;;;;;;5038964;28;19913;-82
2021/04/22 03:10:15;;;;;;;;;;;4.70;39.50;;;;;;5039736;28;19904;-82
2021/04/22 03:12:40;;;;;;;;;;;4.70;39.60;;;;;;5056807;28;19909;-83
2021/04/22 03:15:06;;;;;;;;;;;4.70;39.60;;;;;;5051816;28;19909;-82
2021/04/22 03:17:32;;;;;;;;;;;4.70;39.60;;;;;;5057438;28;19928;-82
2021/04/22 03:19:57;;;;;;;;;;;4.60;39.50;;;;;;5057998;28;19905;-82
2021/04/22 03:22:23;;;;;;;;;;;4.60;39.50;;;;;;5038799;28;20376;-82
2021/04/22 03:24:48;;;;;;;;;;;4.60;39.60;;;;;;5065662;28;19951;-81
2021/04/22 03:27:14;;;;;;;;;;;4.60;39.60;;;;;;5055824;28;19928;-82
2021/04/22 03:29:39;;;;;;;;;;;4.50;39.50;;;;;;5057984;28;19952;-82
2021/04/22 03:32:05;;;;;;;;;;;4.50;39.60;;;;;;5056234;28;19908;-82
2021/04/22 03:34:33;;;;;;;;;;;4.50;39.60;;;;;;5057500;28;19909;-82
2021/04/22 03:36:59;;;;;;;;;;;4.50;39.70;;;;;;5060364;28;19917;-82
2021/04/22 03:39:27;;;;;;;;;;;4.50;39.70;;;;;;5060827;28;20261;-82
2021/04/22 03:41:52;;;;;;;;;;;4.50;39.70;;;;;;5042115;28;19975;-79
2021/04/22 03:44:17;;;;;;;;;;;4.40;39.70;;;;;;5060780;28;20487;-81
2021/04/22 03:46:43;;;;;;;;;;;4.40;39.70;;;;;;5060357;28;20445;-82
2021/04/22 03:49:08;;;;;;;;;;;4.40;39.70;;;;;;5043032;28;19975;-82
2021/04/22 03:51:34;;;;;;;;;;;4.40;39.70;;;;;;5060272;28;19909;-82
2021/04/22 03:54:03;;;;;;;;;;;4.40;39.70;;;;;;5060196;28;19921;-82
2021/04/22 03:56:28;;;;;;;;;;;4.40;39.80;;;;;;5043472;28;19928;-82
2021/04/22 03:58:54;;;;;;;;;;;4.40;39.80;;;;;;5041735;28;19921;-82
2021/04/22 04:01:19;;;;;;;;;;;4.40;39.90;;;;;;5041009;28;19909;-82
2021/04/22 04:03:52;;;;;;;;;;;4.30;39.80;;;;;;5060797;28;19908;-82
2021/04/22 04:06:17;;;;;;;;;;;4.30;39.90;;;;;;5060450;28;19919;-82
2021/04/22 04:08:43;;;;;;;;;;;4.30;39.90;;;;;;5060998;28;19912;-82
2021/04/22 04:11:08;;;;;;;;;;;4.30;39.90;;;;;;5060407;28;19908;-82
2021/04/22 04:13:33;;;;;;;;;;;4.30;39.90;;;;;;5059231;28;19963;-82
2021/04/22 04:15:59;;;;;;;;;;;4.30;39.90;;;;;;5060654;28;19913;-82
2021/04/22 04:18:24;;;;;;;;;;;4.30;39.90;;;;;;5060106;28;19915;-82
2021/04/22 04:20:50;;;;;;;;;;;4.30;39.90;;;;;;5060340;28;19916;-82
2021/04/22 04:23:15;;;;;;;;;;;4.30;39.90;;;;;;5059438;28;19947;-83
2021/04/22 04:25:41;;;;;;;;;;;4.30;39.90;;;;;;5041879;28;20384;-82
2021/04/22 04:28:07;;;;;;;;;;;4.30;39.90;;;;;;5059498;28;19999;-82
2021/04/22 04:30:32;;;;;;;;;;;4.30;39.90;;;;;;5059716;28;19916;-82
2021/04/22 04:32:58;;;;;;;;;;;4.30;40.00;;;;;;5041950;28;19908;-82
2021/04/22 04:35:24;;;;;;;;;;;4.30;40.00;;;;;;5060913;28;20272;-82
2021/04/22 04:37:50;;;;;;;;;;;4.30;40.00;;;;;;5058891;28;19952;-83
2021/04/22 04:40:16;;;;;;;;;;;4.40;40.00;;;;;;5060078;28;19920;-82
2021/04/22 04:42:41;;;;;;;;;;;4.50;40.00;;;;;;5058983;28;19909;-82
2021/04/22 04:45:08;;;;;;;;;;;4.50;40.00;;;;;;5049288;28;19911;-82
2021/04/22 04:47:34;;;;;;;;;;;4.70;40.00;;;;;;5058833;28;19977;-83
2021/04/22 04:49:59;;;;;;;;;;;4.80;40.00;;;;;;5062168;28;20631;-82
2021/04/22 04:52:25;;;;;;;;;;;4.90;39.90;;;;;;5057172;28;19954;-82
2021/04/22 04:54:53;;;;;;;;;;;5.10;39.80;;;;;;5049592;28;19909;-83
2021/04/22 04:57:19;;;;;;;;;;;5.20;39.70;;;;;;5059590;28;20284;-83
2021/04/22 04:59:44;;;;;;;;;;;5.30;39.60;;;;;;5059415;28;19908;-82
2021/04/22 05:02:12;;;;;;;;;;;5.30;39.60;;;;;;5058518;28;20357;-83
2021/04/22 05:04:38;;;;;;;;;;;5.40;39.60;;;;;;5058273;28;19916;-82
2021/04/22 05:07:03;;;;;;;;;;;5.50;39.60;;;;;;5058262;28;19939;-83
2021/04/22 05:09:29;;;;;;;;;;;5.60;39.60;;;;;;5058171;28;19973;-82
2021/04/22 05:11:54;;;;;;;;;;;5.80;40.10;;;;;;5058047;28;19928;-82
2021/04/22 05:14:20;;;;;;;;;;;6.00;39.40;;;;;;5058252;28;19958;-82
2021/04/22 05:16:45;;;;;;;;;;;6.20;39.30;;;;;;5041890;28;19921;-82
2021/04/22 05:19:11;;;;;;;;;;;6.50;39.20;;;;;;5059070;28;19913;-82
2021/04/22 05:21:36;;;;;;;;;;;7.80;39.50;;;;;;5057858;28;19913;-81
2021/04/22 05:24:02;;;;;;;;;;;10.50;37.80;;;;;;5060316;28;19963;-83
2021/04/22 05:26:27;;;;;;;;;;;13.10;35.60;;;;;;5061954;28;20007;-83
2021/04/22 05:28:56;;;;;;;;;;;15.10;33.80;;;;;;5041851;28;19959;-83
2021/04/22 05:31:28;;;;;;;;;;;16.80;32.70;;;;;;5059896;28;20621;-83
2021/04/22 05:33:53;;;;;;;;;;;18.20;31.90;;;;;;5047286;28;19920;-83
2021/04/22 05:36:22;;;;;;;;;;;19.50;31.60;;;;;;5058050;28;19912;-83
2021/04/22 05:38:47;;;;;;;;;;;20.90;31.30;;;;;;5039818;28;19913;-83
2021/04/22 05:41:13;;;;;;;;;;;22.40;30.80;;;;;;5059024;28;20295;-85
2021/04/22 05:43:38;;;;;;;;;;;24.20;30.70;;;;;;5055397;28;20396;-86
2021/04/22 05:46:04;;;;;;;;;;;26.10;29.90;;;;;;5054767;28;19948;-85
2021/04/22 05:48:29;;;;;;;;;;;28.20;29.20;;;;;;5053154;28;19932;-85
2021/04/22 05:50:55;;;;;;;;;;;30.00;28.30;;;;;;5055426;28;19909;-85
2021/04/22 05:53:21;;;;;;;;;;;31.80;27.80;;;;;;5053559;28;19904;-85
2021/04/22 05:55:47;;;;;;;;;;;33.00;27.30;;;;;;5053615;28;19909;-85
2021/04/22 05:58:12;;;;;;;;;;;33.10;27.30;;;;;;5038542;28;21030;-85
2021/04/22 06:00:38;;;;;;;;;;;33.30;27.20;;;;;;5061998;28;19915;-84
2021/04/22 06:03:03;;;;;;;;;;;32.80;27.90;;;;;;5062077;28;19915;-86
2021/04/22 06:05:29;;;;;;;;;;;34.70;27.60;;;;;;5061494;28;20015;-85
2021/04/22 06:07:57;;;;;;;;;;;36.40;26.80;;;;;;5061935;28;19916;-85
2021/04/22 06:10:25;;;;;;;;;;;37.30;26.50;;;;;;5061119;28;19904;-84
2021/04/22 06:12:50;;;;;;;;;;;35.90;26.60;;;;;;5063348;28;19909;-85
2021/04/22 06:15:19;;;;;;;;;;;35.20;27.80;;;;;;5051282;28;19905;-86
2021/04/22 06:17:44;;;;;;;;;;;35.70;27.60;;;;;;5082233;28;19912;-86
2021/04/22 06:20:11;;;;;;;;;;;35.80;27.30;;;;;;5066995;28;19911;-84
2021/04/22 06:22:37;;;;;;;;;;;35.60;27.60;;;;;;5062426;28;19920;-85
2021/04/22 06:25:08;;;;;;;;;;;36.00;27.40;;;;;;5061417;28;19972;-83
2021/04/22 06:27:34;;;;;;;;;;;36.60;27.10;;;;;;5061930;28;19908;-84
2021/04/22 06:29:59;;;;;;;;;;;35.30;27.20;;;;;;5062445;28;19904;-83
2021/04/22 06:32:25;;;;;;;;;;;33.30;28.40;;;;;;5063836;28;20359;-84
2021/04/22 06:34:50;;;;;;;;;;;31.50;29.50;;;;;;5043998;28;19915;-84
2021/04/22 06:37:16;;;;;;;;;;;33.10;29.60;;;;;;5062018;28;19916;-84
2021/04/22 06:39:41;;;;;;;;;;;34.20;28.30;;;;;;5060763;28;19947;-84
2021/04/22 06:42:09;;;;;;;;;;;35.90;27.50;;;;;;5061279;28;19912;-84
2021/04/22 06:44:36;;;;;;;;;;;37.40;27.00;;;;;;5055851;28;20312;-84
2021/04/22 06:47:02;;;;;;;;;;;39.70;26.30;;;;;;5063385;28;19948;-83
2021/04/22 06:49:27;;;;;;;;;;;42.00;25.40;;;;;;5063681;28;19913;-84
2021/04/22 06:51:53;;;;;;;;;;;43.70;24.90;;;;;;5059564;28;19952;-84
2021/04/22 06:54:18;;;;;;;;;;;43.20;24.30;;;;;;5059965;28;19913;-84
2021/04/22 06:56:44;;;;;;;;;;;41.30;26.00;;;;;;5037768;28;19932;-84
2021/04/22 06:59:09;;;;;;;;;;;40.00;26.10;;;;;;5053805;28;19920;-84
2021/04/22 07:01:35;;;;;;;;;;;37.70;26.90;;;;;;5054966;28;19916;-84
2021/04/22 07:04:03;;;;;;;;;;;38.00;27.30;;;;;;5036174;28;19972;-84
2021/04/22 07:06:28;;;;;;;;;;;38.20;27.20;;;;;;5052780;28;19920;-84
2021/04/22 07:08:54;;;;;;;;;;;41.20;26.30;;;;;;5052472;28;19912;-85
2021/04/22 07:11:19;;;;;;;;;;;43.40;25.20;;;;;;5056306;28;19963;-84
2021/04/22 07:13:45;;;;;;;;;;;44.60;24.40;;;;;;5038512;28;20381;-84
2021/04/22 07:16:10;;;;;;;;;;;41.00;25.50;;;;;;5043568;28;19913;-85
2021/04/22 07:18:36;;;;;;;;;;;40.70;26.20;;;;;;5040118;28;19919;-85
2021/04/22 07:21:01;;;;;;;;;;;42.70;25.60;;;;;;5054805;28;19916;-85
2021/04/22 07:23:27;;;;;;;;;;;44.40;24.70;;;;;;5036759;28;19912;-86
2021/04/22 07:25:53;;;;;;;;;;;44.00;24.50;;;;;;5056335;28;19917;-84
2021/04/22 07:28:18;;;;;;;;;;;41.70;24.10;;;;;;5054483;28;19971;-84
2021/04/22 07:30:44;;;;;;;;;;;37.90;25.60;;;;;;5055712;28;20335;-84
2021/04/22 07:33:10;;;;;;;;;;;33.90;27.50;;;;;;5056612;28;19920;-83
2021/04/22 07:35:37;;;;;;;;;;;31.00;29.10;;;;;;5055438;28;19912;-83
2021/04/22 07:38:03;;;;;;;;;;;30.80;29.60;;;;;;5055788;28;19974;-84
2021/04/22 07:40:29;;;;;;;;;;;31.20;28.70;;;;;;5038043;28;20400;-84
2021/04/22 07:42:55;;;;;;;;;;;29.00;29.70;;;;;;5042014;28;19967;-84
2021/04/22 07:45:22;;;;;;;;;;;28.50;30.10;;;;;;5060207;28;19920;-84
2021/04/22 07:47:48;;;;;;;;;;;27.90;30.10;;;;;;5051429;28;19913;-84
2021/04/22 07:50:14;;;;;;;;;;;26.60;31.00;;;;;;5061333;28;19976;-84
2021/04/22 07:52:40;;;;;;;;;;;26.40;31.90;;;;;;5054938;28;19916;-84
2021/04/22 07:55:07;;;;;;;;;;;31.40;29.80;;;;;;5057174;28;19909;-84
2021/04/22 07:57:32;;;;;;;;;;;31.10;28.10;;;;;;5055988;28;19947;-84
2021/04/22 07:59:58;;;;;;;;;;;30.50;28.90;;;;;;5061108;28;19920;-84
2021/04/22 08:02:23;;;;;;;;;;;33.90;27.70;;;;;;5050905;28;19920;-85
2021/04/22 08:04:49;;;;;;;;;;;32.50;27.10;;;;;;5051577;28;19989;-84
2021/04/22 08:07:14;;;;;;;;;;;33.20;27.90;;;;;;5062124;28;20011;-84
2021/04/22 08:09:40;;;;;;;;;;;34.30;26.50;;;;;;5055310;28;19931;-85
2021/04/22 08:12:06;;;;;;;;;;;35.20;25.80;;;;;;5056994;28;19966;-84
2021/04/22 08:14:32;;;;;;;;;;;36.80;26.20;;;;;;5048543;28;19913;-84
2021/04/22 08:16:58;;;;;;;;;;;39.30;24.80;;;;;;5046437;28;20293;-84
2021/04/22 08:19:23;;;;;;;;;;;38.70;24.30;;;;;;5051592;28;19921;-84
2021/04/22 08:21:48;;;;;;;;;;;38.10;23.90;;;;;;5048585;28;20003;-85
2021/04/22 08:24:14;;;;;;;;;;;38.00;24.40;;;;;;5065433;28;19916;-84
2021/04/22 08:26:39;;;;;;;;;;;38.90;24.90;;;;;;5055610;28;19920;-84
2021/04/22 08:29:05;;;;;;;;;;;39.70;24.00;;;;;;5058593;28;20404;-84
2021/04/22 08:31:31;;;;;;;;;;;39.00;25.00;;;;;;5025851;28;19920;-85
2021/04/22 08:33:58;;;;;;;;;;;40.70;24.20;;;;;;5045263;28;20369;-84
2021/04/22 08:36:24;;;;;;;;;;;42.40;23.90;;;;;;5056499;28;19960;-85
2021/04/22 08:38:50;;;;;;;;;;;43.50;23.60;;;;;;5055931;28;19913;-85
2021/04/22 08:41:16;;;;;;;;;;;44.40;23.60;;;;;;5038634;28;20012;-84
2021/04/22 08:43:42;;;;;;;;;;;45.30;23.70;;;;;;5055636;28;20183;-84
2021/04/22 08:46:07;;;;;;;;;;;46.20;23.50;;;;;;5063637;28;20537;-85
2021/04/22 08:48:34;;;;;;;;;;;46.40;23.50;;;;;;5041973;28;20005;-85
2021/04/22 08:51:00;;;;;;;;;;;46.20;23.70;;;;;;5052465;28;19913;-84
2021/04/22 08:53:29;;;;;;;;;;;46.50;23.70;;;;;;5036411;28;19947;-85
2021/04/22 08:55:55;;;;;;;;;;;46.90;24.00;;;;;;5067457;28;19913;-84
2021/04/22 08:58:20;;;;;;;;;;;46.60;23.30;;;;;;5056434;28;19921;-85
2021/04/22 09:00:50;;;;;;;;;;;46.30;23.30;;;;;;5055723;28;19959;-85
2021/04/22 09:03:17;;;;;;;;;;;45.60;22.90;;;;;;5056180;28;19913;-85
2021/04/22 09:05:42;;;;;;;;;;;45.20;23.20;;;;;;5038257;28;20380;-85
2021/04/22 09:08:08;;;;;;;;;;;45.40;23.40;;;;;;5055898;28;19917;-85
2021/04/22 09:10:34;;;;;;;;;;;45.50;23.50;;;;;;5055868;28;20509;-84
2021/04/22 09:13:02;;;;;;;;;;;45.50;23.40;;;;;;5037817;28;19939;-85
2021/04/22 09:15:29;;;;;;;;;;;45.20;23.40;;;;;;5056617;28;19943;-84
2021/04/22 09:17:55;;;;;;;;;;;45.00;23.40;;;;;;5055717;28;20411;-85
2021/04/22 09:20:26;;;;;;;;;;;44.60;23.30;;;;;;5053459;28;19912;-84
2021/04/22 09:22:51;;;;;;;;;;;43.80;23.00;;;;;;5061144;28;19920;-84
2021/04/22 09:25:18;;;;;;;;;;;42.80;22.90;;;;;;5055247;28;20311;-84
2021/04/22 09:27:44;;;;;;;;;;;42.40;23.10;;;;;;5054624;28;19917;-85
2021/04/22 09:30:10;;;;;;;;;;;42.20;23.00;;;;;;5055476;28;19916;-85
2021/04/22 09:32:38;;;;;;;;;;;41.90;22.80;;;;;;5055189;28;19955;-82
2021/04/22 09:35:10;;;;;;;;;;;41.70;23.00;;;;;;5054841;28;19912;-85
2021/04/22 09:37:38;;;;;;;;;;;41.90;23.00;;;;;;5054834;28;19912;-85
2021/04/22 09:40:22;;;;;;;;;;;41.90;23.00;;;;;;5055776;28;19963;-84
2021/04/22 09:42:48;;;;;;;;;;;41.50;22.90;;;;;;5036671;28;19916;-85
2021/04/22 09:45:15;;;;;;;;;;;39.60;23.50;;;;;;5059043;28;20369;-84
2021/04/22 09:47:41;;;;;;;;;;;37.10;24.20;;;;;;5061855;28;19917;-84
2021/04/22 09:50:11;;;;;;;;;;;34.90;24.90;;;;;;5062417;28;19967;-84
2021/04/22 09:52:39;;;;;;;;;;;34.60;25.30;;;;;;5061294;28;19913;-84
2021/04/22 09:55:06;;;;;;;;;;;35.40;25.00;;;;;;5059837;28;20300;-84
2021/04/22 09:57:34;;;;;;;;;;;36.40;24.60;;;;;;5073605;28;19916;-84
2021/04/22 10:00:00;;;;;;;;;;;36.90;24.10;;;;;;5060141;28;19909;-84
2021/04/22 10:02:26;;;;;;;;;;;37.50;24.10;;;;;;5052230;28;19920;-84
2021/04/22 10:04:53;;;;;;;;;;;37.50;23.70;;;;;;5050411;28;19921;-84
2021/04/22 10:07:33;;;;;;;;;;;36.00;24.20;;;;;;5056411;28;19917;-82
2021/04/22 10:10:12;;;;;;;;;;;34.30;24.80;;;;;;5067406;28;20257;-84
2021/04/22 10:12:37;;;;;;;;;;;33.80;25.00;;;;;;5062530;28;20019;-84
2021/04/22 10:15:09;;;;;;;;;;;33.90;25.20;;;;;;5047284;28;19913;-84
2021/04/22 10:17:34;;;;;;;;;;;34.30;25.00;;;;;;5059333;28;19966;-83
2021/04/22 10:20:01;;;;;;;;;;;34.20;25.00;;;;;;5062478;28;20347;-84
2021/04/22 10:22:28;;;;;;;;;;;33.70;24.60;;;;;;5062000;28;19913;-84
2021/04/22 10:24:57;;;;;;;;;;;32.50;25.10;;;;;;5059995;28;19913;-83
2021/04/22 10:27:23;;;;;;;;;;;32.90;25.50;;;;;;5037025;28;19921;-83
2021/04/22 10:29:49;;;;;;;;;;;34.10;25.20;;;;;;5046236;28;19913;-84
2021/04/22 10:32:15;;;;;;;;;;;35.10;24.80;;;;;;5045194;28;19938;-84
2021/04/22 10:34:41;;;;;;;;;;;36.10;24.50;;;;;;5059460;28;20011;-84
2021/04/22 10:37:06;;;;;;;;;;;36.60;24.00;;;;;;5057514;28;19934;-84
2021/04/22 10:39:34;;;;;;;;;;;36.60;23.90;;;;;;5056364;28;19916;-84
2021/04/22 10:42:00;;;;;;;;;;;36.10;23.80;;;;;;5050686;28;19913;-84
2021/04/22 10:44:27;;;;;;;;;;;36.40;23.70;;;;;;5056416;28;19916;-84
2021/04/22 10:46:53;;;;;;;;;;;35.80;23.80;;;;;;5067176;28;20014;-84
2021/04/22 10:49:18;;;;;;;;;;;34.80;23.90;;;;;;5055650;28;19924;-84
2021/04/22 10:51:44;;;;;;;;;;;35.80;23.50;;;;;;5064976;28;19913;-83
2021/04/22 10:54:10;;;;;;;;;;;36.70;23.30;;;;;;5056549;28;19912;-84
2021/04/22 10:56:35;;;;;;;;;;;37.50;23.20;;;;;;5035456;28;19932;-85
2021/04/22 10:59:01;;;;;;;;;;;37.70;22.80;;;;;;5054195;28;19920;-83
2021/04/22 11:01:35;;;;;;;;;;;37.90;23.00;;;;;;5055374;28;19913;-85
2021/04/22 11:04:04;;;;;;;;;;;38.20;22.80;;;;;;5054617;28;19971;-84
2021/04/22 11:06:34;;;;;;;;;;;38.50;23.30;;;;;;5053601;28;20003;-83
2021/04/22 11:09:09;;;;;;;;;;;38.70;22.90;;;;;;5035511;28;19913;-85
2021/04/22 11:11:35;;;;;;;;;;;38.60;23.00;;;;;;5052000;28;19920;-83
2021/04/22 11:14:19;;;;;;;;;;;38.60;23.30;;;;;;5061277;28;19912;-84
2021/04/22 11:16:53;;;;;;;;;;;38.40;23.20;;;;;;5054168;28;19935;-84
2021/04/22 11:19:23;;;;;;;;;;;37.70;23.30;;;;;;5037263;28;20004;-84
2021/04/22 11:21:50;;;;;;;;;;;37.50;23.40;;;;;;5056156;28;19913;-84
2021/04/22 11:24:25;;;;;;;;;;;37.40;23.50;;;;;;5071792;28;19966;-84
2021/04/22 11:26:57;;;;;;;;;;;36.90;23.40;;;;;;5057215;28;20439;-84
2021/04/22 11:29:23;;;;;;;;;;;36.60;23.50;;;;;;5042163;28;19920;-83
2021/04/22 11:31:50;;;;;;;;;;;36.30;23.60;;;;;;5057461;28;19913;-84
2021/04/22 11:34:16;;;;;;;;;;;36.30;23.60;;;;;;5056490;28;19920;-83
2021/04/22 11:36:48;;;;;;;;;;;36.20;23.60;;;;;;5071119;28;19912;-83
2021/04/22 11:39:14;;;;;;;;;;;36.10;23.60;;;;;;5055856;28;19912;-85
2021/04/22 11:41:50;;;;;;;;;;;36.00;23.50;;;;;;5061942;28;19919;-84
2021/04/22 11:44:15;;;;;;;;;;;35.90;23.40;;;;;;5049998;28;19916;-84
2021/04/22 11:46:42;;;;;;;;;;;36.10;23.50;;;;;;5042730;28;19919;-85
2021/04/22 11:49:09;;;;;;;;;;;36.30;23.40;;;;;;5038326;28;19913;-83
2021/04/22 11:51:40;;;;;;;;;;;36.40;23.40;;;;;;5058500;28;19916;-85
2021/04/22 11:54:17;;;;;;;;;;;36.40;23.30;;;;;;5057588;28;20442;-83
2021/04/22 11:56:45;;;;;;;;;;;36.00;23.10;;;;;;5061312;28;19913;-83
2021/04/22 11:59:15;;;;;;;;;;;35.90;23.20;;;;;;5043560;28;19917;-83
2021/04/22 12:01:45;;;;;;;;;;;35.70;23.10;;;;;;5059096;28;19936;-83
2021/04/22 12:04:10;;;;;;;;;;;35.50;23.50;;;;;;5059858;28;19923;-84
2021/04/22 12:06:36;;;;;;;;;;;35.40;23.10;;;;;;5060244;28;19917;-83
2021/04/22 12:09:01;;;;;;;;;;;35.40;23.10;;;;;;5044257;28;19917;-83
2021/04/22 12:11:28;;;;;;;;;;;35.10;22.90;;;;;;5060746;28;19920;-84
2021/04/22 12:13:54;;;;;;;;;;;34.50;22.80;;;;;;5076978;28;19955;-83
2021/04/22 12:16:20;;;;;;;;;;;33.90;22.60;;;;;;5069631;28;19924;-83
2021/04/22 12:18:46;;;;;;;;;;;33.30;22.80;;;;;;5046729;28;19913;-85
2021/04/22 12:21:13;;;;;;;;;;;32.80;22.70;;;;;;5055273;28;20352;-82
2021/04/22 12:23:40;;;;;;;;;;;32.50;22.90;;;;;;5061646;28;19913;-83
2021/04/22 12:26:16;;;;;;;;;;;32.60;23.00;;;;;;5063345;28;19916;-82
2021/04/22 12:28:49;;;;;;;;;;;32.80;23.00;;;;;;5059865;28;19939;-83
2021/04/22 12:31:21;;;;;;;;;;;32.90;22.90;;;;;;5046725;28;19916;-83
2021/04/22 12:33:47;;;;;;;;;;;32.90;23.10;;;;;;5062612;28;19912;-83
2021/04/22 12:36:12;;;;;;;;;;;32.70;23.00;;;;;;5063556;28;20412;-84
2021/04/22 12:38:38;;;;;;;;;;;32.20;23.10;;;;;;5059821;28;19917;-83
2021/04/22 12:41:05;;;;;;;;;;;32.30;23.30;;;;;;5083132;28;19909;-82
2021/04/22 12:43:33;;;;;;;;;;;32.30;23.20;;;;;;5062970;28;19917;-84
2021/04/22 12:46:06;;;;;;;;;;;32.30;23.30;;;;;;5046397;28;19908;-83
2021/04/22 12:48:32;;;;;;;;;;;32.00;23.40;;;;;;5045573;28;19917;-82
2021/04/22 12:50:57;;;;;;;;;;;32.20;23.50;;;;;;5047986;28;19920;-82
2021/04/22 12:53:24;;;;;;;;;;;32.20;23.50;;;;;;5062563;28;20360;-83
2021/04/22 12:55:54;;;;;;;;;;;32.20;23.50;;;;;;5063419;28;19976;-83
2021/04/22 12:58:30;;;;;;;;;;;31.80;23.40;;;;;;5063231;28;19913;-83
2021/04/22 13:01:02;;;;;;;;;;;31.50;23.60;;;;;;5060377;28;19934;-83
2021/04/22 13:03:29;;;;;;;;;;;31.30;23.60;;;;;;5063209;28;19913;-83
2021/04/22 13:06:06;;;;;;;;;;;31.10;23.80;;;;;;5061998;28;20369;-84
2021/04/22 13:08:32;;;;;;;;;;;30.90;23.70;;;;;;5060867;28;19920;-83
2021/04/22 13:10:58;;;;;;;;;;;30.60;23.80;;;;;;5062930;28;19920;-83
2021/04/22 13:13:25;;;;;;;;;;;30.20;23.70;;;;;;5062727;28;20380;-84
2021/04/22 13:15:50;;;;;;;;;;;29.50;23.60;;;;;;5063035;28;20315;-84
2021/04/22 13:18:18;;;;;;;;;;;28.50;23.60;;;;;;5059627;28;19985;-85
2021/04/22 13:20:45;;;;;;;;;;;28.00;23.90;;;;;;5038968;28;19913;-84
2021/04/22 13:23:11;;;;;;;;;;;27.70;24.00;;;;;;5055054;28;19919;-85
2021/04/22 13:25:37;;;;;;;;;;;27.40;24.10;;;;;;5057321;28;19920;-85
2021/04/22 13:28:03;;;;;;;;;;;27.30;24.20;;;;;;5062864;28;19916;-84
2021/04/22 13:30:35;;;;;;;;;;;27.10;24.10;;;;;;5068834;28;19955;-86
2021/04/22 13:33:02;;;;;;;;;;;27.00;24.20;;;;;;5063513;28;20149;-84
2021/04/22 13:35:27;;;;;;;;;;;26.90;24.10;;;;;;5046442;28;19942;-83
2021/04/22 13:37:53;;;;;;;;;;;26.60;24.30;;;;;;5050008;28;19924;-84
2021/04/22 13:40:18;;;;;;;;;;;26.40;24.30;;;;;;5048191;28;19954;-83
2021/04/22 13:42:44;;;;;;;;;;;26.40;24.40;;;;;;5063045;28;19920;-84
2021/04/22 13:45:11;;;;;;;;;;;26.50;24.50;;;;;;5062186;28;19917;-83
2021/04/22 13:47:37;;;;;;;;;;;26.60;24.40;;;;;;5061470;28;19932;-85
2021/04/22 13:50:03;;;;;;;;;;;26.30;24.30;;;;;;5063209;28;19913;-86
2021/04/22 13:52:28;;;;;;;;;;;25.90;24.40;;;;;;5062217;28;19915;-85
2021/04/22 13:55:04;;;;;;;;;;;25.90;24.60;;;;;;5063646;28;19916;-84
2021/04/22 13:57:30;;;;;;;;;;;26.00;24.70;;;;;;5063620;28;19920;-85
2021/04/22 13:59:58;;;;;;;;;;;26.10;24.70;;;;;;5045397;28;19909;-84
2021/04/22 14:02:32;;;;;;;;;;;26.30;24.70;;;;;;5044508;28;19920;-84
2021/04/22 14:04:58;;;;;;;;;;;26.30;24.70;;;;;;5061897;28;19913;-84
2021/04/22 14:07:27;;;;;;;;;;;26.40;24.70;;;;;;5061830;28;19980;-85
2021/04/22 14:09:55;;;;;;;;;;;26.40;24.70;;;;;;5061473;28;19909;-84
2021/04/22 14:12:20;;;;;;;;;;;26.40;24.70;;;;;;5061617;28;19917;-85
2021/04/22 14:14:46;;;;;;;;;;;26.10;24.70;;;;;;5061671;28;19931;-85
2021/04/22 14:17:11;;;;;;;;;;;25.80;24.70;;;;;;5059604;28;19952;-84